sensor_id;sensor_type;location;lat;lon;timestamp;pressure;altitude;pressure_sealevel;temperature;humidity
50734;BME280;36701;51.798;19.474;2022-08-21T00:00:14;98484.19;;;21.74;100.00
50734;BME280;36701;51.798;19.474;2022-08-21T00:03:04;98475.88;;;21.83;100.00
50734;BME280;36701;51.798;19.474;2022-08-21T00:05:32;98435.72;;;21.33;100.00
50734;BME280;36701;51.798;19.474;2022-08-21T00:07:59;98463.38;;;21.61;100.00
50734;BME280;36701;51.798;19.474;2022-08-21T00:10:26;98465.16;;;21.57;100.00
50734;BME280;36701;51.798;19.474;2022-08-21T00:12:52;98469.28;;;21.63;100.00
50734;BME280;36701;51.798;19.474;2022-08-21T00:15:25;98443.84;;;21.63;100.00
50734;BME280;36701;51.798;19.474;2022-08-21T00:17:55;98424.75;;;21.33;100.00
50734;BME280;36701;51.798;19.474;2022-08-21T00:20:23;98466.28;;;21.77;100.00
50734;BME280;36701;51.798;19.474;2022-08-21T00:22:50;98458.22;;;21.59;100.00
50734;BME280;36701;51.798;19.474;2022-08-21T00:25:17;98438.37;;;21.41;100.00
50734;BME280;36701;51.798;19.474;2022-08-21T00:27:44;98442.78;;;21.55;100.00
50734;BME280;36701;51.798;19.474;2022-08-21T00:30:14;98417.16;;;21.38;100.00
50734;BME280;36701;51.798;19.474;2022-08-21T00:32:41;98406.75;;;21.32;100.00
50734;BME280;36701;51.798;19.474;2022-08-21T00:35:11;98452.63;;;21.56;100.00
50734;BME280;36701;51.798;19.474;2022-08-21T00:37:39;98399.72;;;21.22;100.00
50734;BME280;36701;51.798;19.474;2022-08-21T00:40:09;98444.84;;;21.58;100.00
50734;BME280;36701;51.798;19.474;2022-08-21T00:42:37;98429.56;;;21.57;100.00
50734;BME280;36701;51.798;19.474;2022-08-21T00:45:04;98438.37;;;21.63;100.00
50734;BME280;36701;51.798;19.474;2022-08-21T00:47:30;98400.81;;;21.51;100.00
50734;BME280;36701;51.798;19.474;2022-08-21T00:49:57;98434.19;;;21.77;100.00
50734;BME280;36701;51.798;19.474;2022-08-21T00:52:27;98435.00;;;21.78;100.00
50734;BME280;36701;51.798;19.474;2022-08-21T00:54:56;98430.00;;;21.92;100.00
50734;BME280;36701;51.798;19.474;2022-08-21T00:57:47;98414.81;;;21.83;100.00
50734;BME280;36701;51.798;19.474;2022-08-21T01:00:19;98433.53;;;21.93;100.00
50734;BME280;36701;51.798;19.474;2022-08-21T01:02:46;98425.63;;;21.79;100.00
50734;BME280;36701;51.798;19.474;2022-08-21T01:05:13;98397.97;;;21.59;100.00
50734;BME280;36701;51.798;19.474;2022-08-21T01:07:40;98434.34;;;21.60;100.00
50734;BME280;36701;51.798;19.474;2022-08-21T01:10:08;98435.53;;;21.71;100.00
50734;BME280;36701;51.798;19.474;2022-08-21T01:12:35;98429.94;;;21.68;100.00
50734;BME280;36701;51.798;19.474;2022-08-21T01:15:04;98424.16;;;21.82;100.00
50734;BME280;36701;51.798;19.474;2022-08-21T01:17:31;98429.38;;;21.74;100.00
50734;BME280;36701;51.798;19.474;2022-08-21T01:20:00;98423.72;;;21.80;100.00
50734;BME280;36701;51.798;19.474;2022-08-21T01:22:27;98426.19;;;21.72;100.00
50734;BME280;36701;51.798;19.474;2022-08-21T01:24:53;98416.69;;;21.70;100.00
50734;BME280;36701;51.798;19.474;2022-08-21T01:27:20;98421.16;;;21.62;100.00
50734;BME280;36701;51.798;19.474;2022-08-21T01:29:57;98423.22;;;21.77;100.00
50734;BME280;36701;51.798;19.474;2022-08-21T01:32:25;98426.69;;;21.87;100.00
50734;BME280;36701;51.798;19.474;2022-08-21T01:34:52;98421.44;;;21.94;100.00
50734;BME280;36701;51.798;19.474;2022-08-21T01:37:19;98420.50;;;21.90;100.00
50734;BME280;36701;51.798;19.474;2022-08-21T01:39:46;98417.31;;;21.88;100.00
50734;BME280;36701;51.798;19.474;2022-08-21T01:42:14;98386.03;;;21.76;100.00
50734;BME280;36701;51.798;19.474;2022-08-21T01:44:41;98414.38;;;22.05;100.00
50734;BME280;36701;51.798;19.474;2022-08-21T01:47:09;98371.97;;;21.90;100.00
50734;BME280;36701;51.798;19.474;2022-08-21T01:49:37;98379.44;;;22.02;100.00
50734;BME280;36701;51.798;19.474;2022-08-21T01:52:04;98400.81;;;22.34;100.00
50734;BME280;36701;51.798;19.474;2022-08-21T01:54:31;98399.09;;;22.29;100.00
50734;BME280;36701;51.798;19.474;2022-08-21T01:56:59;98363.09;;;22.06;100.00
50734;BME280;36701;51.798;19.474;2022-08-21T01:59:27;98403.62;;;22.12;100.00
50734;BME280;36701;51.798;19.474;2022-08-21T02:01:54;98363.19;;;21.85;100.00
50734;BME280;36701;51.798;19.474;2022-08-21T02:04:21;98402.06;;;22.11;100.00
50734;BME280;36701;51.798;19.474;2022-08-21T02:06:49;98399.53;;;22.19;100.00
50734;BME280;36701;51.798;19.474;2022-08-21T02:09:16;98359.75;;;22.00;100.00
50734;BME280;36701;51.798;19.474;2022-08-21T02:11:43;98402.63;;;22.17;100.00
50734;BME280;36701;51.798;19.474;2022-08-21T02:14:11;98370.03;;;22.03;100.00
50734;BME280;36701;51.798;19.474;2022-08-21T02:16:38;98397.88;;;22.39;100.00
50734;BME280;36701;51.798;19.474;2022-08-21T02:19:05;98401.84;;;22.41;100.00
50734;BME280;36701;51.798;19.474;2022-08-21T02:21:31;98390.41;;;22.52;100.00
50734;BME280;36701;51.798;19.474;2022-08-21T02:23:58;98350.66;;;22.33;100.00
50734;BME280;36701;51.798;19.474;2022-08-21T02:26:25;98387.09;;;22.46;100.00
50734;BME280;36701;51.798;19.474;2022-08-21T02:28:52;98344.69;;;22.19;100.00
50734;BME280;36701;51.798;19.474;2022-08-21T02:31:25;98336.72;;;22.13;100.00
50734;BME280;36701;51.798;19.474;2022-08-21T02:33:52;98366.44;;;22.36;100.00
50734;BME280;36701;51.798;19.474;2022-08-21T02:36:18;98335.78;;;22.09;100.00
50734;BME280;36701;51.798;19.474;2022-08-21T02:38:44;98374.75;;;22.27;100.00
50734;BME280;36701;51.798;19.474;2022-08-21T02:41:16;98339.00;;;22.11;100.00
50734;BME280;36701;51.798;19.474;2022-08-21T02:43:42;98355.78;;;22.22;100.00
50734;BME280;36701;51.798;19.474;2022-08-21T02:46:11;98381.72;;;22.25;100.00
50734;BME280;36701;51.798;19.474;2022-08-21T02:48:38;98379.22;;;22.20;100.00
50734;BME280;36701;51.798;19.474;2022-08-21T02:51:15;98334.44;;;21.91;100.00
50734;BME280;36701;51.798;19.474;2022-08-21T02:53:42;98379.00;;;22.37;100.00
50734;BME280;36701;51.798;19.474;2022-08-21T02:56:11;98333.06;;;22.22;100.00
50734;BME280;36701;51.798;19.474;2022-08-21T02:58:46;98354.41;;;22.28;100.00
50734;BME280;36701;51.798;19.474;2022-08-21T03:01:14;98299.72;;;21.83;100.00
50734;BME280;36701;51.798;19.474;2022-08-21T03:03:43;98356.81;;;22.18;100.00
50734;BME280;36701;51.798;19.474;2022-08-21T03:06:13;98352.94;;;22.19;100.00
50734;BME280;36701;51.798;19.474;2022-08-21T03:08:40;98361.84;;;22.16;100.00
50734;BME280;36701;51.798;19.474;2022-08-21T03:11:07;98365.97;;;21.97;100.00
50734;BME280;36701;51.798;19.474;2022-08-21T03:13:34;98326.41;;;21.61;100.00
50734;BME280;36701;51.798;19.474;2022-08-21T03:16:00;98329.97;;;21.74;100.00
50734;BME280;36701;51.798;19.474;2022-08-21T03:18:27;98360.00;;;21.95;100.00
50734;BME280;36701;51.798;19.474;2022-08-21T03:20:53;98326.19;;;21.79;100.00
50734;BME280;36701;51.798;19.474;2022-08-21T03:23:19;98331.44;;;21.84;100.00
50734;BME280;36701;51.798;19.474;2022-08-21T03:25:47;98302.94;;;21.39;100.00
50734;BME280;36701;51.798;19.474;2022-08-21T03:28:18;98327.00;;;21.67;100.00
50734;BME280;36701;51.798;19.474;2022-08-21T03:30:51;98364.34;;;21.96;100.00
50734;BME280;36701;51.798;19.474;2022-08-21T03:33:18;98361.84;;;21.91;100.00
50734;BME280;36701;51.798;19.474;2022-08-21T03:35:48;98355.22;;;22.04;100.00
50734;BME280;36701;51.798;19.474;2022-08-21T03:38:18;98362.50;;;22.12;100.00
50734;BME280;36701;51.798;19.474;2022-08-21T03:40:46;98326.09;;;22.00;100.00
50734;BME280;36701;51.798;19.474;2022-08-21T03:43:12;98345.50;;;22.07;100.00
50734;BME280;36701;51.798;19.474;2022-08-21T03:45:38;98323.69;;;21.98;100.00
50734;BME280;36701;51.798;19.474;2022-08-21T03:48:06;98359.09;;;22.28;100.00
50734;BME280;36701;51.798;19.474;2022-08-21T03:50:37;98364.81;;;22.10;100.00
50734;BME280;36701;51.798;19.474;2022-08-21T03:53:05;98352.91;;;22.06;100.00
50734;BME280;36701;51.798;19.474;2022-08-21T03:55:32;98313.19;;;21.88;100.00
50734;BME280;36701;51.798;19.474;2022-08-21T03:57:58;98295.25;;;21.90;100.00
50734;BME280;36701;51.798;19.474;2022-08-21T04:00:25;98339.91;;;22.28;100.00
50734;BME280;36701;51.798;19.474;2022-08-21T04:02:52;98336.50;;;22.31;100.00
50734;BME280;36701;51.798;19.474;2022-08-21T04:05:19;98346.78;;;22.34;100.00
50734;BME280;36701;51.798;19.474;2022-08-21T04:08:04;98348.13;;;22.28;100.00
50734;BME280;36701;51.798;19.474;2022-08-21T04:10:34;98352.47;;;22.04;100.00
50734;BME280;36701;51.798;19.474;2022-08-21T04:13:03;98357.25;;;21.95;100.00
50734;BME280;36701;51.798;19.474;2022-08-21T04:15:29;98355.00;;;21.97;100.00
50734;BME280;36701;51.798;19.474;2022-08-21T04:17:56;98357.38;;;22.11;100.00
50734;BME280;36701;51.798;19.474;2022-08-21T04:20:30;98348.34;;;21.73;100.00
50734;BME280;36701;51.798;19.474;2022-08-21T04:22:56;98309.72;;;21.54;100.00
50734;BME280;36701;51.798;19.474;2022-08-21T04:25:24;98326.66;;;21.93;100.00
50734;BME280;36701;51.798;19.474;2022-08-21T04:27:52;98312.25;;;21.59;100.00
50734;BME280;36701;51.798;19.474;2022-08-21T04:30:19;98343.31;;;21.75;100.00
50734;BME280;36701;51.798;19.474;2022-08-21T04:32:47;98348.00;;;21.87;100.00
50734;BME280;36701;51.798;19.474;2022-08-21T04:35:16;98353.63;;;21.91;100.00
50734;BME280;36701;51.798;19.474;2022-08-21T04:37:43;98357.03;;;21.88;100.00
50734;BME280;36701;51.798;19.474;2022-08-21T04:40:12;98354.97;;;22.09;100.00
50734;BME280;36701;51.798;19.474;2022-08-21T04:43:00;98359.31;;;22.10;100.00
50734;BME280;36701;51.798;19.474;2022-08-21T04:45:46;98340.72;;;22.04;100.00
50734;BME280;36701;51.798;19.474;2022-08-21T04:48:16;98327.31;;;22.14;100.00
50734;BME280;36701;51.798;19.474;2022-08-21T04:50:58;98364.81;;;22.35;100.00
50734;BME280;36701;51.798;19.474;2022-08-21T04:53:47;98376.25;;;22.37;100.00
50734;BME280;36701;51.798;19.474;2022-08-21T04:56:22;98373.72;;;22.57;100.00
50734;BME280;36701;51.798;19.474;2022-08-21T04:58:50;98373.47;;;22.74;100.00
50734;BME280;36701;51.798;19.474;2022-08-21T05:01:20;98368.75;;;22.75;100.00
50734;BME280;36701;51.798;19.474;2022-08-21T05:03:49;98383.06;;;22.80;100.00
50734;BME280;36701;51.798;19.474;2022-08-21T05:06:17;98346.03;;;22.62;100.00
50734;BME280;36701;51.798;19.474;2022-08-21T05:08:45;98386.91;;;22.92;100.00
50734;BME280;36701;51.798;19.474;2022-08-21T05:11:12;98391.38;;;22.84;100.00
50734;BME280;36701;51.798;19.474;2022-08-21T05:13:39;98351.94;;;22.76;100.00
50734;BME280;36701;51.798;19.474;2022-08-21T05:16:07;98360.78;;;22.70;100.00
50734;BME280;36701;51.798;19.474;2022-08-21T05:18:34;98404.97;;;22.93;100.00
50734;BME280;36701;51.798;19.474;2022-08-21T05:21:00;98405.63;;;23.02;100.00
50734;BME280;36701;51.798;19.474;2022-08-21T05:23:27;98389.41;;;22.97;100.00
50734;BME280;36701;51.798;19.474;2022-08-21T05:25:53;98409.06;;;23.11;100.00
50734;BME280;36701;51.798;19.474;2022-08-21T05:28:19;98362.72;;;22.69;100.00
50734;BME280;36701;51.798;19.474;2022-08-21T05:30:47;98421.41;;;23.17;100.00
50734;BME280;36701;51.798;19.474;2022-08-21T05:33:19;98393.34;;;22.83;100.00
50734;BME280;36701;51.798;19.474;2022-08-21T05:35:50;98387.19;;;22.62;100.00
50734;BME280;36701;51.798;19.474;2022-08-21T05:38:17;98425.00;;;22.93;100.00
50734;BME280;36701;51.798;19.474;2022-08-21T05:40:44;98380.78;;;22.70;100.00
50734;BME280;36701;51.798;19.474;2022-08-21T05:43:10;98387.44;;;22.69;100.00
50734;BME280;36701;51.798;19.474;2022-08-21T05:45:37;98417.53;;;23.18;100.00
50734;BME280;36701;51.798;19.474;2022-08-21T05:48:07;98413.13;;;23.30;100.00
50734;BME280;36701;51.798;19.474;2022-08-21T05:50:35;98409.50;;;23.13;100.00
50734;BME280;36701;51.798;19.474;2022-08-21T05:53:01;98378.44;;;22.97;100.00
50734;BME280;36701;51.798;19.474;2022-08-21T05:55:28;98412.72;;;23.15;100.00
50734;BME280;36701;51.798;19.474;2022-08-21T05:57:54;98428.69;;;23.26;100.00
50734;BME280;36701;51.798;19.474;2022-08-21T06:00:21;98421.22;;;23.38;100.00
50734;BME280;36701;51.798;19.474;2022-08-21T06:02:49;98422.59;;;23.32;100.00
50734;BME280;36701;51.798;19.474;2022-08-21T06:05:17;98415.41;;;23.28;100.00
50734;BME280;36701;51.798;19.474;2022-08-21T06:07:43;98415.41;;;23.28;100.00
50734;BME280;36701;51.798;19.474;2022-08-21T06:10:10;98418.41;;;23.23;100.00
50734;BME280;36701;51.798;19.474;2022-08-21T06:12:37;98417.66;;;23.38;100.00
50734;BME280;36701;51.798;19.474;2022-08-21T06:15:03;98432.94;;;23.51;100.00
50734;BME280;36701;51.798;19.474;2022-08-21T06:17:30;98379.25;;;23.26;100.00
50734;BME280;36701;51.798;19.474;2022-08-21T06:19:56;98432.28;;;23.42;100.00
50734;BME280;36701;51.798;19.474;2022-08-21T06:22:23;98420.91;;;23.56;100.00
50734;BME280;36701;51.798;19.474;2022-08-21T06:24:49;98395.44;;;23.43;100.00
50734;BME280;36701;51.798;19.474;2022-08-21T06:27:15;98365.97;;;23.28;100.00
50734;BME280;36701;51.798;19.474;2022-08-21T06:29:43;98388.25;;;23.38;100.00
50734;BME280;36701;51.798;19.474;2022-08-21T06:32:12;98421.38;;;23.74;100.00
50734;BME280;36701;51.798;19.474;2022-08-21T06:34:40;98375.00;;;23.72;100.00
50734;BME280;36701;51.798;19.474;2022-08-21T06:37:07;98422.50;;;24.17;100.00
50734;BME280;36701;51.798;19.474;2022-08-21T06:39:34;98421.19;;;24.27;100.00
50734;BME280;36701;51.798;19.474;2022-08-21T06:42:01;98418.94;;;24.33;100.00
50734;BME280;36701;51.798;19.474;2022-08-21T06:44:29;98412.72;;;24.36;100.00
50734;BME280;36701;51.798;19.474;2022-08-21T06:46:56;98411.31;;;24.42;100.00
50734;BME280;36701;51.798;19.474;2022-08-21T06:49:23;98416.37;;;24.40;100.00
50734;BME280;36701;51.798;19.474;2022-08-21T06:51:49;98400.81;;;24.47;100.00
50734;BME280;36701;51.798;19.474;2022-08-21T06:54:16;98373.09;;;24.21;100.00
50734;BME280;36701;51.798;19.474;2022-08-21T06:56:43;98415.66;;;24.59;100.00
50734;BME280;36701;51.798;19.474;2022-08-21T06:59:09;98422.56;;;24.69;100.00
50734;BME280;36701;51.798;19.474;2022-08-21T07:01:35;98403.13;;;24.61;100.00
50734;BME280;36701;51.798;19.474;2022-08-21T07:04:02;98413.91;;;24.86;100.00
50734;BME280;36701;51.798;19.474;2022-08-21T07:06:29;98422.59;;;24.88;100.00
50734;BME280;36701;51.798;19.474;2022-08-21T07:08:55;98423.97;;;24.78;100.00
50734;BME280;36701;51.798;19.474;2022-08-21T07:11:23;98414.47;;;24.76;100.00
50734;BME280;36701;51.798;19.474;2022-08-21T07:13:51;98414.88;;;24.78;100.00
50734;BME280;36701;51.798;19.474;2022-08-21T07:16:20;98416.59;;;24.66;100.00
50734;BME280;36701;51.798;19.474;2022-08-21T07:18:46;98408.94;;;24.76;100.00
50734;BME280;36701;51.798;19.474;2022-08-21T07:21:12;98385.03;;;24.60;100.00
50734;BME280;36701;51.798;19.474;2022-08-21T07:23:42;98422.75;;;24.95;100.00
50734;BME280;36701;51.798;19.474;2022-08-21T07:26:19;98416.44;;;24.95;100.00
50734;BME280;36701;51.798;19.474;2022-08-21T07:28:48;98411.09;;;25.02;100.00
50734;BME280;36701;51.798;19.474;2022-08-21T07:31:16;98417.19;;;25.11;100.00
50734;BME280;36701;51.798;19.474;2022-08-21T07:33:44;98424.59;;;25.27;100.00
50734;BME280;36701;51.798;19.474;2022-08-21T07:36:11;98398.72;;;25.12;100.00
50734;BME280;36701;51.798;19.474;2022-08-21T07:38:37;98408.84;;;25.27;100.00
50734;BME280;36701;51.798;19.474;2022-08-21T07:41:12;98410.69;;;25.39;100.00
50734;BME280;36701;51.798;19.474;2022-08-21T07:43:41;98418.66;;;25.44;100.00
50734;BME280;36701;51.798;19.474;2022-08-21T07:46:08;98379.19;;;25.20;100.00
50734;BME280;36701;51.798;19.474;2022-08-21T07:48:34;98401.19;;;25.36;100.00
50734;BME280;36701;51.798;19.474;2022-08-21T07:51:05;98407.34;;;25.49;100.00
50734;BME280;36701;51.798;19.474;2022-08-21T07:53:35;98397.09;;;25.69;100.00
50734;BME280;36701;51.798;19.474;2022-08-21T07:56:02;98362.09;;;25.73;100.00
50734;BME280;36701;51.798;19.474;2022-08-21T07:58:31;98402.53;;;25.89;100.00
50734;BME280;36701;51.798;19.474;2022-08-21T08:00:57;98395.50;;;25.91;100.00
50734;BME280;36701;51.798;19.474;2022-08-21T08:03:24;98363.94;;;25.66;100.00
50734;BME280;36701;51.798;19.474;2022-08-21T08:05:50;98390.19;;;26.02;100.00
50734;BME280;36701;51.798;19.474;2022-08-21T08:08:16;98365.16;;;25.68;100.00
50734;BME280;36701;51.798;19.474;2022-08-21T08:10:43;98389.41;;;26.02;100.00
50734;BME280;36701;51.798;19.474;2022-08-21T08:13:10;98393.63;;;26.19;100.00
50734;BME280;36701;51.798;19.474;2022-08-21T08:15:37;98366.00;;;26.15;100.00
50734;BME280;36701;51.798;19.474;2022-08-21T08:18:04;98394.69;;;26.37;100.00
50734;BME280;36701;51.798;19.474;2022-08-21T08:20:30;98364.22;;;26.03;100.00
50734;BME280;36701;51.798;19.474;2022-08-21T08:22:57;98383.81;;;25.98;100.00
50734;BME280;36701;51.798;19.474;2022-08-21T08:25:24;98360.25;;;25.58;100.00
50734;BME280;36701;51.798;19.474;2022-08-21T08:27:51;98395.75;;;25.83;100.00
50734;BME280;36701;51.798;19.474;2022-08-21T08:30:19;98351.50;;;25.52;100.00
50734;BME280;36701;51.798;19.474;2022-08-21T08:32:48;98365.97;;;25.69;100.00
50734;BME280;36701;51.798;19.474;2022-08-21T08:35:16;98374.28;;;25.96;100.00
50734;BME280;36701;51.798;19.474;2022-08-21T08:37:42;98399.47;;;25.94;100.00
50734;BME280;36701;51.798;19.474;2022-08-21T08:40:14;98394.22;;;26.08;100.00
50734;BME280;36701;51.798;19.474;2022-08-21T08:42:45;98397.97;;;26.46;100.00
50734;BME280;36701;51.798;19.474;2022-08-21T08:45:18;98365.06;;;26.07;100.00
50734;BME280;36701;51.798;19.474;2022-08-21T08:47:49;98398.63;;;25.90;100.00
50734;BME280;36701;51.798;19.474;2022-08-21T08:50:21;98395.88;;;26.13;100.00
50734;BME280;36701;51.798;19.474;2022-08-21T08:52:55;98351.31;;;25.88;100.00
50734;BME280;36701;51.798;19.474;2022-08-21T08:55:45;98373.41;;;26.11;100.00
50734;BME280;36701;51.798;19.474;2022-08-21T08:58:16;98401.91;;;26.19;100.00
50734;BME280;36701;51.798;19.474;2022-08-21T09:00:47;98399.87;;;26.16;100.00
50734;BME280;36701;51.798;19.474;2022-08-21T09:03:15;98401.16;;;26.22;100.00
50734;BME280;36701;51.798;19.474;2022-08-21T09:05:48;98400.75;;;26.46;100.00
50734;BME280;36701;51.798;19.474;2022-08-21T09:11:20;98395.88;;;26.63;100.00
50734;BME280;36701;51.798;19.474;2022-08-21T09:14:13;98401.31;;;26.59;100.00
50734;BME280;36701;51.798;19.474;2022-08-21T09:17:07;98357.13;;;26.56;100.00
50734;BME280;36701;51.798;19.474;2022-08-21T09:19:55;98403.41;;;26.93;100.00
50734;BME280;36701;51.798;19.474;2022-08-21T09:28:41;98379.81;;;26.99;100.00
50734;BME280;36701;51.798;19.474;2022-08-21T09:31:20;98400.34;;;26.71;100.00
50734;BME280;36701;51.798;19.474;2022-08-21T09:33:47;98395.25;;;26.73;100.00
50734;BME280;36701;51.798;19.474;2022-08-21T09:36:24;98388.44;;;26.94;100.00
50734;BME280;36701;51.798;19.474;2022-08-21T09:38:53;98369.47;;;26.92;100.00
50734;BME280;36701;51.798;19.474;2022-08-21T09:41:28;98393.53;;;26.92;100.00
50734;BME280;36701;51.798;19.474;2022-08-21T09:43:54;98402.00;;;27.06;100.00
50734;BME280;36701;51.798;19.474;2022-08-21T09:46:24;98395.00;;;27.16;100.00
50734;BME280;36701;51.798;19.474;2022-08-21T09:48:53;98398.09;;;27.11;100.00
50734;BME280;36701;51.798;19.474;2022-08-21T09:51:31;98384.06;;;26.93;100.00
50734;BME280;36701;51.798;19.474;2022-08-21T09:56:36;98386.22;;;27.07;100.00
50734;BME280;36701;51.798;19.474;2022-08-21T09:59:29;98354.25;;;26.75;100.00
50734;BME280;36701;51.798;19.474;2022-08-21T10:02:07;98382.78;;;26.87;100.00
50734;BME280;36701;51.798;19.474;2022-08-21T10:04:50;98381.84;;;27.06;100.00
50734;BME280;36701;51.798;19.474;2022-08-21T10:07:20;98381.12;;;27.12;100.00
50734;BME280;36701;51.798;19.474;2022-08-21T10:10:04;98334.28;;;26.86;100.00
50734;BME280;36701;51.798;19.474;2022-08-21T10:15:24;98359.75;;;27.06;100.00
50734;BME280;36701;51.798;19.474;2022-08-21T10:26:35;98357.81;;;27.81;100.00
50734;BME280;36701;51.798;19.474;2022-08-21T10:37:39;98387.25;;;27.63;100.00
50734;BME280;36701;51.798;19.474;2022-08-21T10:40:58;98379.50;;;28.20;100.00
50734;BME280;36701;51.798;19.474;2022-08-21T10:43:19;98381.19;;;28.36;100.00
50734;BME280;36701;51.798;19.474;2022-08-21T10:46:01;98379.66;;;28.42;100.00
50734;BME280;36701;51.798;19.474;2022-08-21T10:48:38;98366.22;;;28.44;100.00
50734;BME280;36701;51.798;19.474;2022-08-21T10:51:15;98368.59;;;28.45;100.00
50734;BME280;36701;51.798;19.474;2022-08-21T10:53:59;98376.28;;;28.67;100.00
50734;BME280;36701;51.798;19.474;2022-08-21T10:56:31;98371.19;;;28.79;100.00
50734;BME280;36701;51.798;19.474;2022-08-21T10:59:15;98382.81;;;28.44;100.00
50734;BME280;36701;51.798;19.474;2022-08-21T11:02:14;98347.47;;;27.75;100.00
50734;BME280;36701;51.798;19.474;2022-08-21T11:07:18;98363.75;;;27.42;100.00
50734;BME280;36701;51.798;19.474;2022-08-21T11:09:48;98343.72;;;27.18;100.00
50734;BME280;36701;51.798;19.474;2022-08-21T11:12:35;98369.87;;;26.94;100.00
50734;BME280;36701;51.798;19.474;2022-08-21T11:23:33;98376.28;;;26.72;100.00
50734;BME280;36701;51.798;19.474;2022-08-21T11:26:15;98339.97;;;26.70;100.00
50734;BME280;36701;51.798;19.474;2022-08-21T11:28:52;98361.38;;;26.76;100.00
50734;BME280;36701;51.798;19.474;2022-08-21T11:31:45;98366.88;;;26.76;100.00
50734;BME280;36701;51.798;19.474;2022-08-21T11:40:03;98369.59;;;27.03;100.00
50734;BME280;36701;51.798;19.474;2022-08-21T11:42:43;98371.56;;;27.03;100.00
50734;BME280;36701;51.798;19.474;2022-08-21T11:45:22;98372.97;;;26.89;100.00
50734;BME280;36701;51.798;19.474;2022-08-21T11:47:56;98375.88;;;27.00;100.00
50734;BME280;36701;51.798;19.474;2022-08-21T11:50:28;98378.31;;;27.05;100.00
50734;BME280;36701;51.798;19.474;2022-08-21T11:52:59;98375.31;;;27.17;100.00
50734;BME280;36701;51.798;19.474;2022-08-21T11:55:39;98378.53;;;27.27;100.00
50734;BME280;36701;51.798;19.474;2022-08-21T11:58:17;98337.84;;;26.90;100.00
50734;BME280;36701;51.798;19.474;2022-08-21T12:00:56;98373.50;;;27.32;100.00
50734;BME280;36701;51.798;19.474;2022-08-21T12:03:36;98383.16;;;27.15;100.00
50734;BME280;36701;51.798;19.474;2022-08-21T12:06:09;98348.34;;;27.11;100.00
50734;BME280;36701;51.798;19.474;2022-08-21T12:08:39;98351.78;;;27.31;100.00
50734;BME280;36701;51.798;19.474;2022-08-21T12:16:36;98354.69;;;27.45;100.00
50734;BME280;36701;51.798;19.474;2022-08-21T12:19:08;98386.44;;;28.00;100.00
50734;BME280;36701;51.798;19.474;2022-08-21T12:21:49;98383.47;;;27.78;100.00
50734;BME280;36701;51.798;19.474;2022-08-21T12:24:18;98355.44;;;27.83;100.00
50734;BME280;36701;51.798;19.474;2022-08-21T12:29:29;98388.66;;;27.83;100.00
50734;BME280;36701;51.798;19.474;2022-08-21T12:32:02;98359.34;;;27.79;100.00
50734;BME280;36701;51.798;19.474;2022-08-21T12:34:40;98381.03;;;28.14;100.00
50734;BME280;36701;51.798;19.474;2022-08-21T12:37:18;98387.94;;;27.94;100.00
50734;BME280;36701;51.798;19.474;2022-08-21T12:39:49;98380.16;;;28.03;100.00
50734;BME280;36701;51.798;19.474;2022-08-21T12:42:23;98385.13;;;28.35;100.00
50734;BME280;36701;51.798;19.474;2022-08-21T12:44:56;98378.06;;;28.41;100.00
50734;BME280;36701;51.798;19.474;2022-08-21T12:47:34;98355.81;;;28.26;100.00
50734;BME280;36701;51.798;19.474;2022-08-21T12:50:11;98350.44;;;28.48;100.00
50734;BME280;36701;51.798;19.474;2022-08-21T12:52:53;98383.63;;;28.44;100.00
50734;BME280;36701;51.798;19.474;2022-08-21T12:55:29;98383.22;;;28.46;100.00
50734;BME280;36701;51.798;19.474;2022-08-21T12:57:56;98368.28;;;27.99;100.00
50734;BME280;36701;51.798;19.474;2022-08-21T13:00:25;98382.41;;;27.94;100.00
50734;BME280;36701;51.798;19.474;2022-08-21T13:02:52;98360.50;;;28.19;100.00
50734;BME280;36701;51.798;19.474;2022-08-21T13:05:33;98359.19;;;28.57;100.00
50734;BME280;36701;51.798;19.474;2022-08-21T13:08:04;98336.06;;;28.28;100.00
50734;BME280;36701;51.798;19.474;2022-08-21T13:10:32;98355.28;;;28.66;100.00
50734;BME280;36701;51.798;19.474;2022-08-21T13:13:09;98336.34;;;28.75;100.00
50734;BME280;36701;51.798;19.474;2022-08-21T13:15:40;98329.16;;;28.59;100.00
50734;BME280;36701;51.798;19.474;2022-08-21T13:18:07;98355.84;;;28.30;100.00
50734;BME280;36701;51.798;19.474;2022-08-21T13:20:36;98300.28;;;27.98;100.00
50734;BME280;36701;51.798;19.474;2022-08-21T13:23:24;98324.69;;;28.44;100.00
50734;BME280;36701;51.798;19.474;2022-08-21T13:25:57;98335.56;;;28.78;100.00
50734;BME280;36701;51.798;19.474;2022-08-21T13:28:33;98361.00;;;28.94;100.00
50734;BME280;36701;51.798;19.474;2022-08-21T13:31:00;98327.19;;;28.63;100.00
50734;BME280;36701;51.798;19.474;2022-08-21T13:33:30;98351.59;;;28.47;100.00
50734;BME280;36701;51.798;19.474;2022-08-21T13:36:04;98370.63;;;28.52;100.00
50734;BME280;36701;51.798;19.474;2022-08-21T13:38:36;98362.13;;;28.23;100.00
50734;BME280;36701;51.798;19.474;2022-08-21T13:44:01;98365.84;;;28.49;100.00
50734;BME280;36701;51.798;19.474;2022-08-21T13:46:35;98361.50;;;28.48;100.00
50734;BME280;36701;51.798;19.474;2022-08-21T13:49:16;98354.09;;;28.59;100.00
50734;BME280;36701;51.798;19.474;2022-08-21T13:51:47;98353.72;;;28.09;100.00
50734;BME280;36701;51.798;19.474;2022-08-21T13:54:28;98328.81;;;28.09;100.00
50734;BME280;36701;51.798;19.474;2022-08-21T13:56:58;98363.63;;;28.10;100.00